Time;durP1;ratioP1;P1;durP2;ratioP2;P2;SDS_P1;SDS_P2;PMS_P1;PMS_P2;Temp;Humidity;BMP_temperature;BMP_pressure;BME280_temperature;BME280_humidity;BME280_pressure;Samples;Min_cycle;Max_cycle;Signal;HPM_P1;HPM_P2
2022/01/03 00:01:36;;;;;;;36.80;19.73;;;;;;;;;;4994277;28;20026;-37
2022/01/03 00:04:02;;;;;;;32.47;18.52;;;;;;;;;;4994947;28;20031;-36
2022/01/03 00:06:27;;;;;;;31.45;19.10;;;;;;;;;;4995043;28;20030;-37
2022/01/03 00:08:54;;;;;;;28.77;18.52;;;;;;;;;;4994104;28;20508;-37
2022/01/03 00:11:20;;;;;;;32.00;18.67;;;;;;;;;;4995309;28;20046;-37
2022/01/03 00:13:48;;;;;;;34.95;19.40;;;;;;;;;;4995002;28;20033;-38
2022/01/03 00:16:15;;;;;;;25.73;16.27;;;;;;;;;;4994047;28;20038;-37
2022/01/03 00:18:41;;;;;;;35.33;19.58;;;;;;;;;;4995198;28;20027;-37
2022/01/03 00:21:12;;;;;;;36.08;19.33;;;;;;;;;;4994971;28;20033;-38
2022/01/03 00:23:39;;;;;;;34.92;19.20;;;;;;;;;;4993899;28;20032;-37
2022/01/03 00:26:07;;;;;;;30.98;17.90;;;;;;;;;;4994657;28;20034;-38
2022/01/03 00:28:44;;;;;;;27.02;15.98;;;;;;;;;;4994976;28;20034;-36
2022/01/03 00:31:09;;;;;;;28.30;17.02;;;;;;;;;;4994237;28;20027;-37
2022/01/03 00:33:36;;;;;;;28.52;15.25;;;;;;;;;;4994975;28;20033;-37
2022/01/03 00:36:04;;;;;;;29.73;15.77;;;;;;;;;;4994824;28;20121;-37
2022/01/03 00:38:32;;;;;;;26.40;16.45;;;;;;;;;;4994878;28;20077;-37
2022/01/03 00:41:01;;;;;;;30.02;17.02;;;;;;;;;;4994529;28;20081;-38
2022/01/03 00:43:29;;;;;;;32.45;17.60;;;;;;;;;;4994784;28;20023;-37
2022/01/03 00:45:55;;;;;;;33.50;19.35;;;;;;;;;;4994437;28;20026;-37
2022/01/03 00:48:22;;;;;;;39.03;20.77;;;;;;;;;;4994582;28;20057;-37
2022/01/03 00:50:49;;;;;;;40.05;23.00;;;;;;;;;;4993489;28;20030;-36
2022/01/03 00:53:15;;;;;;;38.83;21.23;;;;;;;;;;4993255;28;20069;-37
2022/01/03 00:56:08;;;;;;;39.25;20.58;;;;;;;;;;4992478;28;20027;-36
2022/01/03 00:58:55;;;;;;;41.63;21.23;;;;;;;;;;4992737;28;20034;-36
2022/01/03 01:01:23;;;;;;;34.17;19.20;;;;;;;;;;4992172;28;20443;-37
2022/01/03 01:03:53;;;;;;;42.35;22.55;;;;;;;;;;4992541;28;20033;-36
2022/01/03 01:06:19;;;;;;;;;;;;;;;;;;4992620;28;20479;-36
2022/01/03 01:08:46;;;;;;;31.15;18.55;;;;;;;;;;4992625;28;19975;-37
2022/01/03 01:11:12;;;;;;;32.50;18.67;;;;;;;;;;4992548;28;20026;-37
2022/01/03 01:13:39;;;;;;;35.15;19.83;;;;;;;;;;4992357;28;20149;-37
2022/01/03 01:16:06;;;;;;;28.95;18.10;;;;;;;;;;4992429;28;20049;-36
2022/01/03 01:18:36;;;;;;;33.38;18.70;;;;;;;;;;4992438;28;20027;-37
2022/01/03 01:21:05;;;;;;;33.95;19.60;;;;;;;;;;4992269;28;20027;-37
2022/01/03 01:23:31;;;;;;;35.97;19.23;;;;;;;;;;4992411;28;20031;-38
2022/01/03 01:28:42;;;;;;;29.85;17.73;;;;;;;;;;4992338;28;20375;-38
2022/01/03 01:31:11;;;;;;;31.55;19.17;;;;;;;;;;4992216;28;20034;-37
2022/01/03 01:33:37;;;;;;;30.77;18.17;;;;;;;;;;4992099;28;20030;-36
2022/01/03 01:36:06;;;;;;;36.17;20.00;;;;;;;;;;4991972;28;20425;-36
2022/01/03 01:38:35;;;;;;;26.85;16.05;;;;;;;;;;4992206;28;20101;-38
2022/01/03 01:41:04;;;;;;;35.08;18.08;;;;;;;;;;4990593;28;20137;-37
2022/01/03 01:43:39;;;;;;;33.57;18.93;;;;;;;;;;4991891;28;20027;-38
2022/01/03 01:46:11;;;;;;;28.35;16.27;;;;;;;;;;4992410;28;20018;-37
2022/01/03 01:48:38;;;;;;;26.08;15.50;;;;;;;;;;4991935;28;20504;-37
2022/01/03 01:51:06;;;;;;;28.38;15.27;;;;;;;;;;4992444;28;20022;-37
2022/01/03 01:53:42;;;;;;;25.58;15.52;;;;;;;;;;4992582;28;20046;-38
2022/01/03 01:56:16;;;;;;;26.85;15.15;;;;;;;;;;4992283;28;20038;-37
2022/01/03 01:59:06;;;;;;;27.10;15.07;;;;;;;;;;4992392;28;20031;-37
2022/01/03 02:02:02;;;;;;;24.02;14.95;;;;;;;;;;4993209;28;20050;-38
2022/01/03 02:04:46;;;;;;;27.30;14.48;;;;;;;;;;4992876;28;20486;-39
2022/01/03 02:07:20;;;;;;;23.23;14.10;;;;;;;;;;4993251;28;20030;-37
2022/01/03 02:10:02;;;;;;;23.17;13.90;;;;;;;;;;4993425;28;20033;-38
2022/01/03 02:12:30;;;;;;;23.20;13.32;;;;;;;;;;4993195;28;20069;-37
2022/01/03 02:14:59;;;;;;;21.73;11.15;;;;;;;;;;4993117;28;20396;-37
2022/01/03 02:17:24;;;;;;;20.50;12.55;;;;;;;;;;4993425;28;20109;-38
2022/01/03 02:20:06;;;;;;;21.15;12.13;;;;;;;;;;4993437;28;20441;-38
2022/01/03 02:22:32;;;;;;;21.77;13.00;;;;;;;;;;4993360;28;20378;-37
2022/01/03 02:24:58;;;;;;;19.30;12.55;;;;;;;;;;4993101;28;20029;-39
2022/01/03 02:27:23;;;;;;;21.00;12.57;;;;;;;;;;4993047;28;20037;-37
2022/01/03 02:29:49;;;;;;;19.15;12.18;;;;;;;;;;4992999;28;20056;-38
2022/01/03 02:32:14;;;;;;;21.75;12.63;;;;;;;;;;4991675;28;20038;-39
2022/01/03 02:34:42;;;;;;;18.90;11.75;;;;;;;;;;4993182;28;20030;-37
2022/01/03 02:37:07;;;;;;;20.27;12.23;;;;;;;;;;4992956;28;20504;-38
2022/01/03 02:39:33;;;;;;;23.70;12.27;;;;;;;;;;4992976;28;20038;-37
2022/01/03 02:41:59;;;;;;;21.38;11.90;;;;;;;;;;4992866;28;20022;-37
2022/01/03 02:44:24;;;;;;;21.83;12.20;;;;;;;;;;4992826;28;20033;-38
2022/01/03 02:46:49;;;;;;;20.15;12.23;;;;;;;;;;4995418;28;20042;-37
2022/01/03 02:49:15;;;;;;;21.00;12.68;;;;;;;;;;4997059;28;20026;-38
2022/01/03 02:51:44;;;;;;;20.23;11.35;;;;;;;;;;4996772;28;20411;-37
2022/01/03 02:54:09;;;;;;;22.35;11.55;;;;;;;;;;4996949;28;20394;-38
2022/01/03 02:56:35;;;;;;;21.33;12.38;;;;;;;;;;4996562;28;20034;-37
2022/01/03 02:59:01;;;;;;;22.63;12.63;;;;;;;;;;4996613;28;20034;-37
2022/01/03 03:01:26;;;;;;;18.67;11.65;;;;;;;;;;4996544;28;20034;-37
2022/01/03 03:03:51;;;;;;;16.40;11.02;;;;;;;;;;4996488;28;20033;-37
2022/01/03 03:06:17;;;;;;;22.10;12.23;;;;;;;;;;4996685;28;20109;-38
2022/01/03 03:08:42;;;;;;;20.75;11.60;;;;;;;;;;4996722;28;20057;-37
2022/01/03 03:11:08;;;;;;;20.77;12.57;;;;;;;;;;4996680;28;20022;-38
2022/01/03 03:13:33;;;;;;;18.42;11.45;;;;;;;;;;4996269;28;20026;-37
2022/01/03 03:16:00;;;;;;;17.17;10.30;;;;;;;;;;4996462;28;20085;-37
2022/01/03 03:18:25;;;;;;;19.55;11.68;;;;;;;;;;4996160;28;20493;-38
2022/01/03 03:20:54;;;;;;;17.60;11.38;;;;;;;;;;4996274;28;20066;-38
2022/01/03 03:23:20;;;;;;;20.23;11.85;;;;;;;;;;4996144;28;20475;-37
2022/01/03 03:25:45;;;;;;;21.23;12.38;;;;;;;;;;4996343;28;20041;-38
2022/01/03 03:28:14;;;;;;;20.98;12.70;;;;;;;;;;4996296;28;20123;-37
2022/01/03 03:30:42;;;;;;;22.02;12.48;;;;;;;;;;4996251;28;20061;-37
2022/01/03 03:33:13;;;;;;;19.13;11.32;;;;;;;;;;4995916;28;20504;-38
2022/01/03 03:35:39;;;;;;;16.33;11.05;;;;;;;;;;4996181;28;20041;-37
2022/01/03 03:38:05;;;;;;;18.27;11.25;;;;;;;;;;4995837;28;20408;-38
2022/01/03 03:40:31;;;;;;;18.63;11.63;;;;;;;;;;4995834;28;20061;-37
2022/01/03 03:42:56;;;;;;;22.13;12.18;;;;;;;;;;4995883;28;20026;-37
2022/01/03 03:45:22;;;;;;;16.63;11.10;;;;;;;;;;4996032;28;20030;-37
2022/01/03 03:47:48;;;;;;;18.38;10.75;;;;;;;;;;4995705;28;20041;-38
2022/01/03 03:50:13;;;;;;;19.02;10.77;;;;;;;;;;4995889;28;20022;-36
2022/01/03 03:52:39;;;;;;;18.23;10.68;;;;;;;;;;4995251;28;20502;-37
2022/01/03 03:55:06;;;;;;;21.42;10.90;;;;;;;;;;4995759;28;20109;-37
2022/01/03 03:57:31;;;;;;;17.00;11.10;;;;;;;;;;4994407;28;20022;-37
2022/01/03 03:59:57;;;;;;;17.55;10.57;;;;;;;;;;4995754;28;20046;-37
2022/01/03 04:02:22;;;;;;;19.05;10.80;;;;;;;;;;4995723;28;20034;-38
2022/01/03 04:04:48;;;;;;;16.10;10.55;;;;;;;;;;4995375;28;20049;-37
2022/01/03 04:07:13;;;;;;;20.00;10.93;;;;;;;;;;4995662;28;20081;-37
2022/01/03 04:09:39;;;;;;;18.00;10.63;;;;;;;;;;4995305;28;20497;-37
2022/01/03 04:12:05;;;;;;;16.83;10.25;;;;;;;;;;4995218;28;20073;-37
2022/01/03 04:14:31;;;;;;;17.92;10.23;;;;;;;;;;4995222;28;20065;-37
2022/01/03 04:16:56;;;;;;;18.83;11.27;;;;;;;;;;4995141;28;20062;-38
2022/01/03 04:19:22;;;;;;;17.10;10.88;;;;;;;;;;4995079;28;20062;-38
2022/01/03 04:21:47;;;;;;;15.32;9.27;;;;;;;;;;4995122;28;20073;-37
2022/01/03 04:24:13;;;;;;;18.17;10.25;;;;;;;;;;4995041;28;20042;-38
2022/01/03 04:26:39;;;;;;;16.98;10.05;;;;;;;;;;4994926;28;20109;-37
2022/01/03 04:29:05;;;;;;;16.40;9.35;;;;;;;;;;4994942;28;20034;-38
2022/01/03 04:31:32;;;;;;;18.20;9.65;;;;;;;;;;4994910;28;20479;-38
2022/01/03 04:33:59;;;;;;;17.80;10.20;;;;;;;;;;4995119;28;20037;-37
2022/01/03 04:36:25;;;;;;;17.27;9.93;;;;;;;;;;4994986;28;20042;-37
2022/01/03 04:38:51;;;;;;;17.15;10.15;;;;;;;;;;4995048;28;20030;-37
2022/01/03 04:41:16;;;;;;;15.07;9.35;;;;;;;;;;4995030;28;20065;-37
2022/01/03 04:43:42;;;;;;;18.05;10.00;;;;;;;;;;4994624;28;20033;-37
2022/01/03 04:46:08;;;;;;;16.67;9.25;;;;;;;;;;4994607;28;20084;-39
2022/01/03 04:48:35;;;;;;;17.38;10.15;;;;;;;;;;4994845;28;20085;-37
2022/01/03 04:51:01;;;;;;;16.08;10.00;;;;;;;;;;4994537;28;20490;-37
2022/01/03 04:53:27;;;;;;;19.20;9.57;;;;;;;;;;4994363;28;20061;-37
2022/01/03 04:55:53;;;;;;;14.15;9.35;;;;;;;;;;4994337;28;20125;-37
2022/01/03 04:58:19;;;;;;;18.08;9.77;;;;;;;;;;4994291;28;20101;-38
2022/01/03 05:00:45;;;;;;;14.32;9.23;;;;;;;;;;4994321;28;20045;-37
2022/01/03 05:03:10;;;;;;;22.95;9.57;;;;;;;;;;4994260;28;20018;-37
2022/01/03 05:05:35;;;;;;;15.90;9.65;;;;;;;;;;4994344;28;20034;-37
2022/01/03 05:08:01;;;;;;;16.42;9.18;;;;;;;;;;4994126;28;20026;-37
2022/01/03 05:10:27;;;;;;;15.88;9.43;;;;;;;;;;4994061;28;20034;-37
2022/01/03 05:12:52;;;;;;;18.73;9.85;;;;;;;;;;4994476;28;20062;-36
2022/01/03 05:15:18;;;;;;;13.63;9.73;;;;;;;;;;4994460;28;20169;-38
2022/01/03 05:17:43;;;;;;;18.20;10.30;;;;;;;;;;4993192;28;20018;-37
2022/01/03 05:20:09;;;;;;;14.55;9.57;;;;;;;;;;4994276;28;20030;-37
2022/01/03 05:22:34;;;;;;;15.32;9.80;;;;;;;;;;4994213;28;20101;-38
2022/01/03 05:25:00;;;;;;;13.77;8.63;;;;;;;;;;4994263;28;20026;-39
2022/01/03 05:27:26;;;;;;;14.68;8.65;;;;;;;;;;4993985;28;20031;-37
2022/01/03 05:29:51;;;;;;;15.00;9.90;;;;;;;;;;4994175;28;20026;-38
2022/01/03 05:32:17;;;;;;;15.05;9.10;;;;;;;;;;4994042;28;20520;-37
2022/01/03 05:34:43;;;;;;;15.35;9.18;;;;;;;;;;4993774;28;20026;-37
2022/01/03 05:37:09;;;;;;;14.45;9.75;;;;;;;;;;4994081;28;20030;-38
2022/01/03 05:39:35;;;;;;;14.80;8.95;;;;;;;;;;4993997;28;20030;-38
2022/01/03 05:42:01;;;;;;;14.93;10.45;;;;;;;;;;4993958;28;20457;-37
2022/01/03 05:44:26;;;;;;;16.40;9.73;;;;;;;;;;4993840;28;20026;-37
2022/01/03 05:46:52;;;;;;;13.98;9.10;;;;;;;;;;4992591;28;20034;-40
2022/01/03 05:49:18;;;;;;;16.75;10.00;;;;;;;;;;4993732;28;20037;-40
2022/01/03 05:51:44;;;;;;;18.40;9.27;;;;;;;;;;4993468;28;20061;-37
2022/01/03 05:54:09;;;;;;;15.98;9.18;;;;;;;;;;4993751;28;20065;-39
2022/01/03 05:56:35;;;;;;;15.52;8.95;;;;;;;;;;4993543;28;20168;-39
2022/01/03 05:59:00;;;;;;;15.45;9.45;;;;;;;;;;4993672;28;20026;-37
2022/01/03 06:01:26;;;;;;;17.05;8.27;;;;;;;;;;4992401;28;20523;-37
2022/01/03 06:04:12;;;;;;;14.90;9.18;;;;;;;;;;4993559;28;20030;-37
2022/01/03 06:06:55;;;;;;;13.45;8.65;;;;;;;;;;4993434;28;20039;-37
2022/01/03 06:09:22;;;;;;;14.55;8.70;;;;;;;;;;4993134;28;20045;-37
2022/01/03 06:11:47;;;;;;;12.60;8.40;;;;;;;;;;4993475;28;20046;-37
2022/01/03 06:14:17;;;;;;;13.52;8.63;;;;;;;;;;4993419;28;20041;-37
2022/01/03 06:16:44;;;;;;;12.32;7.30;;;;;;;;;;4992961;28;20433;-37
2022/01/03 06:19:11;;;;;;;10.15;6.82;;;;;;;;;;4993325;28;20065;-37
2022/01/03 06:21:41;;;;;;;12.27;8.45;;;;;;;;;;4992341;28;20678;-37
2022/01/03 06:24:17;;;;;;;14.65;8.98;;;;;;;;;;4992962;28;20054;-37
2022/01/03 06:26:44;;;;;;;13.43;7.85;;;;;;;;;;4993059;28;20030;-37
2022/01/03 06:29:12;;;;;;;17.50;8.60;;;;;;;;;;4992882;28;20470;-39
2022/01/03 06:31:38;;;;;;;13.68;9.10;;;;;;;;;;4993206;28;20026;-38
2022/01/03 06:34:04;;;;;;;13.90;8.50;;;;;;;;;;4993205;28;20019;-37
2022/01/03 06:36:30;;;;;;;11.65;7.82;;;;;;;;;;4992781;28;20446;-38
2022/01/03 06:38:57;;;;;;;14.18;8.02;;;;;;;;;;4992813;28;20022;-38
2022/01/03 06:41:23;;;;;;;14.80;9.00;;;;;;;;;;4993168;28;20034;-37
2022/01/03 06:43:49;;;;;;;11.40;7.85;;;;;;;;;;4992883;28;20036;-37
2022/01/03 06:46:15;;;;;;;13.00;8.68;;;;;;;;;;4993212;28;20149;-37
2022/01/03 06:48:41;;;;;;;17.67;9.90;;;;;;;;;;4993091;28;20101;-37
2022/01/03 06:51:06;;;;;;;16.50;8.93;;;;;;;;;;4993042;28;20022;-37
2022/01/03 06:53:32;;;;;;;11.88;8.27;;;;;;;;;;4992641;28;20132;-38
2022/01/03 06:55:58;;;;;;;14.85;8.90;;;;;;;;;;4992911;28;20029;-37
2022/01/03 06:58:24;;;;;;;15.57;8.73;;;;;;;;;;4992749;28;20113;-38
2022/01/03 07:00:49;;;;;;;14.88;8.82;;;;;;;;;;4992773;28;20505;-38
2022/01/03 07:03:15;;;;;;;14.45;8.93;;;;;;;;;;4992695;28;20030;-37
2022/01/03 07:05:40;;;;;;;11.90;7.75;;;;;;;;;;4992848;28;20030;-37
2022/01/03 07:08:06;;;;;;;12.18;8.00;;;;;;;;;;4992680;28;20030;-37
2022/01/03 07:10:32;;;;;;;11.05;6.75;;;;;;;;;;4992851;28;20048;-38
2022/01/03 07:12:59;;;;;;;13.45;8.57;;;;;;;;;;4991245;28;20134;-38
2022/01/03 07:20:53;;;;;;;11.30;7.47;;;;;;;;;;4992843;28;20084;-37
2022/01/03 07:23:20;;;;;;;12.63;8.25;;;;;;;;;;4992777;28;20038;-37
2022/01/03 07:25:46;;;;;;;10.40;6.15;;;;;;;;;;4992797;28;20022;-37
2022/01/03 07:28:15;;;;;;;9.75;6.57;;;;;;;;;;4992453;28;20478;-38
2022/01/03 07:30:41;;;;;;;12.65;8.35;;;;;;;;;;4992756;28;20030;-37
2022/01/03 07:33:06;;;;;;;8.50;6.75;;;;;;;;;;4995360;28;20096;-37
2022/01/03 07:35:32;;;;;;;13.50;8.75;;;;;;;;;;4995744;28;20052;-37
2022/01/03 07:37:58;;;;;;;11.32;7.22;;;;;;;;;;4995906;28;20085;-37
2022/01/03 07:40:25;;;;;;;11.13;7.68;;;;;;;;;;4995986;28;20482;-37
2022/01/03 07:42:51;;;;;;;14.13;8.60;;;;;;;;;;4994578;28;20398;-37
2022/01/03 07:45:16;;;;;;;19.25;11.60;;;;;;;;;;4995805;28;20034;-39
2022/01/03 07:47:42;;;;;;;11.82;8.38;;;;;;;;;;4995588;28;20205;-38
2022/01/03 07:50:09;;;;;;;13.90;8.90;;;;;;;;;;4996006;28;20030;-37
2022/01/03 07:52:34;;;;;;;12.02;7.72;;;;;;;;;;4995330;28;20041;-37
2022/01/03 07:55:00;;;;;;;13.00;8.20;;;;;;;;;;4995821;28;20030;-37
2022/01/03 07:57:25;;;;;;;12.40;8.20;;;;;;;;;;4995453;28;20030;-37
2022/01/03 07:59:51;;;;;;;17.25;10.63;;;;;;;;;;4994718;28;20121;-36
2022/01/03 08:02:18;;;;;;;21.70;13.20;;;;;;;;;;4993347;28;20037;-37
2022/01/03 08:04:44;;;;;;;24.50;10.45;;;;;;;;;;4993689;28;20026;-38
2022/01/03 08:07:10;;;;;;;18.20;9.05;;;;;;;;;;4993883;28;20050;-37
2022/01/03 08:09:35;;;;;;;14.05;8.30;;;;;;;;;;4993252;28;20045;-38
2022/01/03 08:12:01;;;;;;;12.35;8.32;;;;;;;;;;4993915;28;20026;-38
2022/01/03 08:14:26;;;;;;;11.57;8.48;;;;;;;;;;4993575;28;20073;-38
2022/01/03 08:16:52;;;;;;;12.60;7.75;;;;;;;;;;4993401;28;20030;-37
2022/01/03 08:19:17;;;;;;;14.15;8.75;;;;;;;;;;4993281;28;20030;-37
2022/01/03 08:21:42;;;;;;;11.75;8.25;;;;;;;;;;4992967;28;20030;-37
2022/01/03 08:24:08;;;;;;;14.18;8.65;;;;;;;;;;4995172;28;20053;-36
2022/01/03 08:26:35;;;;;;;12.13;7.10;;;;;;;;;;4994886;28;20085;-38
2022/01/03 08:29:00;;;;;;;13.18;8.32;;;;;;;;;;4994266;28;20029;-36
2022/01/03 08:31:26;;;;;;;14.10;7.93;;;;;;;;;;4993013;28;20026;-39
2022/01/03 08:33:53;;;;;;;13.38;8.48;;;;;;;;;;4993133;28;20088;-39
2022/01/03 08:36:19;;;;;;;11.57;8.00;;;;;;;;;;4993339;28;20030;-37
2022/01/03 08:38:46;;;;;;;14.07;8.18;;;;;;;;;;4992807;28;20125;-37
2022/01/03 08:41:11;;;;;;;13.98;8.60;;;;;;;;;;4994488;28;20038;-38
2022/01/03 08:43:37;;;;;;;13.30;9.48;;;;;;;;;;4993932;28;20030;-36
2022/01/03 08:46:02;;;;;;;14.00;8.98;;;;;;;;;;4994257;28;20026;-36
2022/01/03 08:48:28;;;;;;;13.18;8.38;;;;;;;;;;4993032;28;20065;-37
2022/01/03 08:50:54;;;;;;;14.40;9.02;;;;;;;;;;4992838;28;20061;-37
2022/01/03 08:53:25;;;;;;;20.25;12.20;;;;;;;;;;4994733;28;20042;-37
2022/01/03 08:55:51;;;;;;;13.88;8.52;;;;;;;;;;4994230;28;20034;-37
2022/01/03 08:58:18;;;;;;;23.45;10.68;;;;;;;;;;4993205;28;20137;-38
2022/01/03 09:00:45;;;;;;;20.75;10.57;;;;;;;;;;4992239;28;20114;-36
2022/01/03 09:03:11;;;;;;;12.00;7.03;;;;;;;;;;4994516;28;20064;-36
2022/01/03 09:05:36;;;;;;;15.80;9.65;;;;;;;;;;4994804;28;20494;-37
2022/01/03 09:08:03;;;;;;;19.92;9.75;;;;;;;;;;4994678;28;20022;-36
2022/01/03 09:10:28;;;;;;;22.48;11.00;;;;;;;;;;4994834;28;20027;-37
2022/01/03 09:12:54;;;;;;;12.05;8.13;;;;;;;;;;4994198;28;20022;-37
2022/01/03 09:15:19;;;;;;;11.70;7.40;;;;;;;;;;4993656;28;20117;-36
2022/01/03 09:17:45;;;;;;;10.18;6.65;;;;;;;;;;4993083;28;20034;-37
2022/01/03 09:20:11;;;;;;;16.60;9.07;;;;;;;;;;4994473;28;20489;-37
2022/01/03 09:22:41;;;;;;;13.70;8.25;;;;;;;;;;4994130;28;20466;-35
2022/01/03 09:30:32;;;;;;;12.63;8.27;;;;;;;;;;4994437;28;20096;-36
2022/01/03 09:32:57;;;;;;;17.55;9.05;;;;;;;;;;4994066;28;20022;-36
2022/01/03 09:35:23;;;;;;;12.77;8.85;;;;;;;;;;4994231;28;20032;-37
2022/01/03 09:37:49;;;;;;;13.02;8.30;;;;;;;;;;4994230;28;20018;-37
2022/01/03 09:40:15;;;;;;;13.60;8.02;;;;;;;;;;4994036;28;20406;-42
2022/01/03 09:42:43;;;;;;;11.00;7.32;;;;;;;;;;4993573;28;20421;-39
2022/01/03 09:45:11;;;;;;;10.23;7.30;;;;;;;;;;4994145;28;20429;-38
2022/01/03 09:47:39;;;;;;;12.85;8.02;;;;;;;;;;4994186;28;20092;-35
2022/01/03 09:50:06;;;;;;;20.90;9.32;;;;;;;;;;4993623;28;20118;-38
2022/01/03 09:52:33;;;;;;;19.63;9.18;;;;;;;;;;4993627;28;20057;-38
2022/01/03 09:55:01;;;;;;;15.82;8.25;;;;;;;;;;4993037;28;20117;-37
2022/01/03 09:57:29;;;;;;;19.17;9.35;;;;;;;;;;4993748;28;20041;-38
2022/01/03 09:59:55;;;;;;;19.92;8.80;;;;;;;;;;4993650;28;20373;-35
2022/01/03 10:02:21;;;;;;;10.75;7.15;;;;;;;;;;4993851;28;20138;-37
2022/01/03 10:04:48;;;;;;;16.92;8.95;;;;;;;;;;4993549;28;20077;-37
2022/01/03 10:07:14;;;;;;;14.35;8.05;;;;;;;;;;4993452;28;20042;-37
2022/01/03 10:09:41;;;;;;;14.70;8.23;;;;;;;;;;4993305;28;20027;-37
2022/01/03 10:12:11;;;;;;;13.15;7.38;;;;;;;;;;4993119;28;20053;-36
2022/01/03 10:14:36;;;;;;;12.63;8.57;;;;;;;;;;4992708;28;20022;-36
2022/01/03 10:17:02;;;;;;;15.05;8.68;;;;;;;;;;4992472;28;20026;-37
2022/01/03 10:19:27;;;;;;;16.25;8.80;;;;;;;;;;4992841;28;20061;-38
2022/01/03 10:21:53;;;;;;;10.40;6.72;;;;;;;;;;4992772;28;20513;-36
2022/01/03 10:24:31;;;;;;;11.73;7.40;;;;;;;;;;4992073;28;20030;-36
2022/01/03 10:26:57;;;;;;;8.88;5.70;;;;;;;;;;4990876;28;20023;-35
2022/01/03 10:29:24;;;;;;;11.52;7.47;;;;;;;;;;4993014;28;20045;-37
2022/01/03 10:31:56;;;;;;;10.52;7.22;;;;;;;;;;4993058;28;20050;-38
2022/01/03 10:34:25;;;;;;;9.65;6.22;;;;;;;;;;4993236;28;20034;-37
2022/01/03 10:36:53;;;;;;;9.18;5.93;;;;;;;;;;4992873;28;20434;-38
2022/01/03 10:39:25;;;;;;;9.52;5.45;;;;;;;;;;4993090;28;20039;-37
2022/01/03 10:42:11;;;;;;;8.35;5.65;;;;;;;;;;4993067;28;20033;-39
2022/01/03 10:44:40;;;;;;;11.85;6.28;;;;;;;;;;4993335;28;20445;-37
2022/01/03 10:47:08;;;;;;;7.65;4.82;;;;;;;;;;4992882;28;20438;-36
2022/01/03 10:49:36;;;;;;;11.68;6.32;;;;;;;;;;4993570;28;20085;-37
2022/01/03 10:52:19;;;;;;;8.20;5.57;;;;;;;;;;4991358;28;20446;-38
2022/01/03 10:55:15;;;;;;;9.13;5.75;;;;;;;;;;4992837;28;20102;-37
2022/01/03 10:57:58;;;;;;;9.02;5.25;;;;;;;;;;4992810;28;20427;-38
2022/01/03 11:00:39;;;;;;;6.55;4.88;;;;;;;;;;4993083;28;20378;-37
2022/01/03 11:03:43;;;;;;;9.48;5.43;;;;;;;;;;4992873;28;20406;-38
2022/01/03 11:06:24;;;;;;;9.02;5.97;;;;;;;;;;4991443;28;20045;-37
2022/01/03 11:11:34;;;;;;;11.90;7.50;;;;;;;;;;4996078;28;20362;-37
2022/01/03 11:14:00;;;;;;;14.27;7.28;;;;;;;;;;4996366;28;20029;-37
2022/01/03 11:16:31;;;;;;;10.13;6.57;;;;;;;;;;4996209;28;20034;-39
2022/01/03 11:18:57;;;;;;;9.25;6.93;;;;;;;;;;4996253;28;20368;-37
2022/01/03 11:21:24;;;;;;;12.30;8.27;;;;;;;;;;4996445;28;20022;-38
2022/01/03 11:24:01;;;;;;;10.00;7.40;;;;;;;;;;4996187;28;20022;-38
2022/01/03 11:26:30;;;;;;;11.25;7.80;;;;;;;;;;4996105;28;20026;-38
2022/01/03 11:28:56;;;;;;;12.15;6.70;;;;;;;;;;4994792;28;20030;-37
2022/01/03 11:31:22;;;;;;;10.02;6.97;;;;;;;;;;4996266;28;20351;-38
2022/01/03 11:33:50;;;;;;;11.23;7.10;;;;;;;;;;4995917;28;20040;-39
2022/01/03 11:36:17;;;;;;;11.63;7.22;;;;;;;;;;4995446;28;20394;-37
2022/01/03 11:38:44;;;;;;;16.20;6.80;;;;;;;;;;4995719;28;20115;-38
2022/01/03 11:41:11;;;;;;;12.38;7.03;;;;;;;;;;4995555;28;20382;-40
2022/01/03 11:43:38;;;;;;;10.30;6.93;;;;;;;;;;4995980;28;20418;-36
2022/01/03 11:46:04;;;;;;;9.30;6.53;;;;;;;;;;4995802;28;20065;-38
2022/01/03 11:48:30;;;;;;;8.55;6.43;;;;;;;;;;4995749;28;20023;-38
2022/01/03 11:51:02;;;;;;;10.50;6.57;;;;;;;;;;4994325;28;20045;-37
2022/01/03 11:53:33;;;;;;;9.18;6.25;;;;;;;;;;4995339;28;20050;-37
2022/01/03 11:56:05;;;;;;;10.10;6.63;;;;;;;;;;4995423;28;20437;-37
2022/01/03 11:59:05;;;;;;;9.50;6.70;;;;;;;;;;4995057;28;20383;-38
2022/01/03 12:04:31;;;;;;;8.25;6.00;;;;;;;;;;4995672;28;20045;-37
2022/01/03 12:07:09;;;;;;;9.98;6.70;;;;;;;;;;4994947;28;20434;-37
2022/01/03 12:09:37;;;;;;;9.73;6.40;;;;;;;;;;4995505;28;20033;-38
2022/01/03 12:12:04;;;;;;;8.55;6.40;;;;;;;;;;4995264;28;20512;-38
2022/01/03 12:14:44;;;;;;;10.48;6.97;;;;;;;;;;4995010;28;20109;-38
2022/01/03 12:17:13;;;;;;;8.57;6.50;;;;;;;;;;4995336;28;20034;-38
2022/01/03 12:19:46;;;;;;;10.55;6.35;;;;;;;;;;4993281;28;20364;-38
2022/01/03 12:22:24;;;;;;;8.73;6.05;;;;;;;;;;4995391;28;20068;-38
2022/01/03 12:24:52;;;;;;;10.32;6.70;;;;;;;;;;4995041;28;20490;-38
2022/01/03 12:27:24;;;;;;;10.82;6.00;;;;;;;;;;4995036;28;20042;-37
2022/01/03 12:29:55;;;;;;;12.52;6.80;;;;;;;;;;4995153;28;20034;-37
2022/01/03 12:32:25;;;;;;;9.80;6.88;;;;;;;;;;4994852;28;20498;-37
2022/01/03 12:35:06;;;;;;;7.63;5.90;;;;;;;;;;4995237;28;20157;-38
2022/01/03 12:37:31;;;;;;;;;;;;;;;;;;4993109;28;20042;-38
2022/01/03 12:40:06;;;;;;;12.77;6.63;;;;;;;;;;4995031;28;19913;-37
2022/01/03 12:45:13;;;;;;;14.10;6.85;;;;;;;;;;4994877;28;20505;-37
2022/01/03 12:47:39;;;;;;;9.23;6.60;;;;;;;;;;4994965;28;20031;-38
2022/01/03 12:50:27;;;;;;;10.75;6.72;;;;;;;;;;4994760;28;20394;-38
2022/01/03 12:52:54;;;;;;;17.80;6.90;;;;;;;;;;4994122;28;20453;-38
2022/01/03 12:55:38;;;;;;;10.88;6.82;;;;;;;;;;4994569;28;20373;-37
2022/01/03 12:58:18;;;;;;;12.68;6.80;;;;;;;;;;4994636;28;20038;-37
2022/01/03 13:01:02;;;;;;;;;;;;;;;;;;4994858;28;20470;-37
2022/01/03 13:03:40;;;;;;;11.82;6.95;;;;;;;;;;4994329;28;20016;-39
2022/01/03 13:06:06;;;;;;;9.88;5.72;;;;;;;;;;4994168;28;20548;-37
2022/01/03 13:08:36;;;;;;;7.68;5.07;;;;;;;;;;4994385;28;20026;-38
2022/01/03 13:11:08;;;;;;;8.55;6.03;;;;;;;;;;4994420;28;20026;-37
2022/01/03 13:13:38;;;;;;;10.60;6.25;;;;;;;;;;4994120;28;20493;-42
2022/01/03 13:16:23;;;;;;;7.53;5.90;;;;;;;;;;4994009;28;20561;-39
2022/01/03 13:18:57;;;;;;;10.07;6.25;;;;;;;;;;4994061;28;20023;-36
2022/01/03 13:21:30;;;;;;;12.60;6.68;;;;;;;;;;4993101;28;20027;-38
2022/01/03 13:23:59;;;;;;;9.30;5.70;;;;;;;;;;4994211;28;20034;-36
2022/01/03 13:26:26;;;;;;;10.25;5.95;;;;;;;;;;4993858;28;20074;-38
2022/01/03 13:28:54;;;;;;;8.20;5.53;;;;;;;;;;4994050;28;20360;-37
2022/01/03 13:31:20;;;;;;;9.40;5.95;;;;;;;;;;4993746;28;20022;-38
2022/01/03 13:33:59;;;;;;;10.38;6.35;;;;;;;;;;4993982;28;20015;-37
2022/01/03 13:36:51;;;;;;;9.27;6.20;;;;;;;;;;4993970;28;20084;-38
2022/01/03 13:39:25;;;;;;;7.90;5.50;;;;;;;;;;4991623;28;20062;-36
2022/01/03 13:41:56;;;;;;;11.77;5.97;;;;;;;;;;4993700;28;20023;-37
2022/01/03 13:44:43;;;;;;;12.13;6.63;;;;;;;;;;4993896;28;20029;-37
2022/01/03 13:49:58;;;;;;;8.57;5.93;;;;;;;;;;4993842;28;20030;-36
2022/01/03 13:52:33;;;;;;;9.95;6.00;;;;;;;;;;4992352;28;20046;-37
2022/01/03 13:55:05;;;;;;;10.48;6.65;;;;;;;;;;4993667;28;20054;-36
2022/01/03 13:57:36;;;;;;;10.85;6.13;;;;;;;;;;4993702;28;20084;-37
2022/01/03 14:00:04;;;;;;;10.60;6.28;;;;;;;;;;4993423;28;20050;-37
2022/01/03 14:02:30;;;;;;;11.38;6.35;;;;;;;;;;4993258;28;20459;-36
2022/01/03 14:04:56;;;;;;;9.43;6.10;;;;;;;;;;4994692;28;20031;-36
2022/01/03 14:07:22;;;;;;;10.30;6.30;;;;;;;;;;4992042;28;20042;-36
2022/01/03 14:09:59;;;;;;;10.68;6.65;;;;;;;;;;4993174;28;20018;-37
2022/01/03 14:12:27;;;;;;;12.25;7.07;;;;;;;;;;4993269;28;20031;-37
2022/01/03 14:14:57;;;;;;;12.55;8.82;;;;;;;;;;4993115;28;20026;-35
2022/01/03 14:17:24;;;;;;;10.30;6.10;;;;;;;;;;4992966;28;20034;-37
2022/01/03 14:20:08;;;;;;;15.57;8.68;;;;;;;;;;4993138;28;20022;-37
2022/01/03 14:22:38;;;;;;;13.68;6.78;;;;;;;;;;4993002;28;20113;-36
2022/01/03 14:25:12;;;;;;;10.23;6.28;;;;;;;;;;4993619;28;20026;-37
2022/01/03 14:27:47;;;;;;;10.50;6.50;;;;;;;;;;4993023;28;20030;-38
2022/01/03 14:30:25;;;;;;;9.65;6.18;;;;;;;;;;4993701;28;20395;-38
2022/01/03 14:32:54;;;;;;;10.30;5.78;;;;;;;;;;4993902;28;20085;-37
2022/01/03 14:35:39;;;;;;;10.63;6.88;;;;;;;;;;4993459;28;20037;-37
2022/01/03 14:38:09;;;;;;;13.15;7.18;;;;;;;;;;4993835;28;20378;-36
2022/01/03 14:40:52;;;;;;;13.90;6.70;;;;;;;;;;4993862;28;20030;-36
2022/01/03 14:43:21;;;;;;;13.20;6.53;;;;;;;;;;4995320;28;20078;-38
2022/01/03 14:45:49;;;;;;;9.88;6.57;;;;;;;;;;4995693;28;20034;-37
2022/01/03 14:48:20;;;;;;;11.98;7.20;;;;;;;;;;4994721;28;20074;-39
2022/01/03 14:50:46;;;;;;;13.30;6.70;;;;;;;;;;4995963;28;20411;-36
2022/01/03 14:53:12;;;;;;;12.25;6.47;;;;;;;;;;4995770;28;20049;-37
2022/01/03 14:55:39;;;;;;;9.13;6.20;;;;;;;;;;4995749;28;20026;-37
2022/01/03 14:58:06;;;;;;;9.88;6.38;;;;;;;;;;4996105;28;20355;-36
2022/01/03 15:00:34;;;;;;;11.23;6.25;;;;;;;;;;4995949;28;20050;-35
2022/01/03 15:03:03;;;;;;;11.27;6.40;;;;;;;;;;4995646;28;20054;-38